sensor_id;sensor_type;location;lat;lon;timestamp;P1;durP1;ratioP1;P2;durP2;ratioP2
51556;SDS011;38766;53.194;5.532;2023-05-07T00:00:21;23.92;;;17.05;;
51556;SDS011;38766;53.194;5.532;2023-05-07T00:02:47;22.25;;;16.40;;
51556;SDS011;38766;53.194;5.532;2023-05-07T00:05:13;21.50;;;17.38;;
51556;SDS011;38766;53.194;5.532;2023-05-07T00:07:39;21.90;;;16.85;;
51556;SDS011;38766;53.194;5.532;2023-05-07T00:10:05;22.45;;;16.80;;
51556;SDS011;38766;53.194;5.532;2023-05-07T00:12:32;22.33;;;17.42;;
51556;SDS011;38766;53.194;5.532;2023-05-07T00:15:03;22.48;;;17.35;;
51556;SDS011;38766;53.194;5.532;2023-05-07T00:17:30;23.20;;;17.48;;
51556;SDS011;38766;53.194;5.532;2023-05-07T00:19:58;21.20;;;17.25;;
51556;SDS011;38766;53.194;5.532;2023-05-07T00:22:24;26.23;;;18.17;;
51556;SDS011;38766;53.194;5.532;2023-05-07T00:24:50;22.35;;;17.45;;
51556;SDS011;38766;53.194;5.532;2023-05-07T00:27:16;22.90;;;17.98;;
51556;SDS011;38766;53.194;5.532;2023-05-07T00:29:41;22.70;;;18.58;;
51556;SDS011;38766;53.194;5.532;2023-05-07T00:32:07;23.42;;;17.85;;
51556;SDS011;38766;53.194;5.532;2023-05-07T00:34:33;21.88;;;16.55;;
51556;SDS011;38766;53.194;5.532;2023-05-07T00:36:59;23.20;;;17.98;;
51556;SDS011;38766;53.194;5.532;2023-05-07T00:39:26;24.25;;;17.63;;
51556;SDS011;38766;53.194;5.532;2023-05-07T00:41:51;25.80;;;18.52;;
51556;SDS011;38766;53.194;5.532;2023-05-07T00:44:17;24.10;;;17.73;;
51556;SDS011;38766;53.194;5.532;2023-05-07T00:46:43;23.52;;;18.58;;
51556;SDS011;38766;53.194;5.532;2023-05-07T00:49:10;23.50;;;17.20;;
51556;SDS011;38766;53.194;5.532;2023-05-07T00:51:36;21.45;;;17.67;;
51556;SDS011;38766;53.194;5.532;2023-05-07T00:54:02;22.27;;;17.60;;
51556;SDS011;38766;53.194;5.532;2023-05-07T00:56:28;24.00;;;17.50;;
51556;SDS011;38766;53.194;5.532;2023-05-07T00:58:53;25.40;;;17.17;;
51556;SDS011;38766;53.194;5.532;2023-05-07T01:01:20;21.73;;;17.02;;
51556;SDS011;38766;53.194;5.532;2023-05-07T01:03:46;23.13;;;17.88;;
51556;SDS011;38766;53.194;5.532;2023-05-07T01:06:11;24.05;;;17.77;;
51556;SDS011;38766;53.194;5.532;2023-05-07T01:08:38;25.00;;;16.98;;
51556;SDS011;38766;53.194;5.532;2023-05-07T01:11:06;21.58;;;17.20;;
51556;SDS011;38766;53.194;5.532;2023-05-07T01:13:33;22.48;;;17.70;;
51556;SDS011;38766;53.194;5.532;2023-05-07T01:16:00;23.23;;;17.58;;
51556;SDS011;38766;53.194;5.532;2023-05-07T01:18:27;24.58;;;17.88;;
51556;SDS011;38766;53.194;5.532;2023-05-07T01:20:55;24.15;;;17.83;;
51556;SDS011;38766;53.194;5.532;2023-05-07T01:23:23;27.38;;;18.63;;
51556;SDS011;38766;53.194;5.532;2023-05-07T01:25:52;25.00;;;17.65;;
51556;SDS011;38766;53.194;5.532;2023-05-07T01:28:18;23.10;;;17.48;;
51556;SDS011;38766;53.194;5.532;2023-05-07T01:30:46;24.30;;;18.40;;
51556;SDS011;38766;53.194;5.532;2023-05-07T01:33:16;24.48;;;17.55;;
51556;SDS011;38766;53.194;5.532;2023-05-07T01:35:47;23.58;;;17.45;;
51556;SDS011;38766;53.194;5.532;2023-05-07T01:38:16;25.38;;;19.27;;
51556;SDS011;38766;53.194;5.532;2023-05-07T01:40:43;25.33;;;17.67;;
51556;SDS011;38766;53.194;5.532;2023-05-07T01:43:08;23.30;;;18.13;;
51556;SDS011;38766;53.194;5.532;2023-05-07T01:45:35;23.73;;;18.33;;
51556;SDS011;38766;53.194;5.532;2023-05-07T01:48:02;25.25;;;17.85;;
51556;SDS011;38766;53.194;5.532;2023-05-07T01:50:28;22.83;;;17.65;;
51556;SDS011;38766;53.194;5.532;2023-05-07T01:52:55;24.48;;;18.95;;
51556;SDS011;38766;53.194;5.532;2023-05-07T01:55:21;25.88;;;19.05;;
51556;SDS011;38766;53.194;5.532;2023-05-07T01:57:47;24.60;;;18.17;;
51556;SDS011;38766;53.194;5.532;2023-05-07T02:00:13;26.33;;;18.23;;
51556;SDS011;38766;53.194;5.532;2023-05-07T02:02:39;23.92;;;18.08;;
51556;SDS011;38766;53.194;5.532;2023-05-07T02:05:05;26.25;;;18.73;;
51556;SDS011;38766;53.194;5.532;2023-05-07T02:07:31;25.58;;;17.88;;
51556;SDS011;38766;53.194;5.532;2023-05-07T02:09:56;24.55;;;17.98;;
51556;SDS011;38766;53.194;5.532;2023-05-07T02:12:22;23.75;;;18.33;;
51556;SDS011;38766;53.194;5.532;2023-05-07T02:14:48;25.05;;;17.20;;
51556;SDS011;38766;53.194;5.532;2023-05-07T02:17:14;21.92;;;17.48;;
51556;SDS011;38766;53.194;5.532;2023-05-07T02:19:40;25.77;;;18.02;;
51556;SDS011;38766;53.194;5.532;2023-05-07T02:22:06;23.98;;;17.70;;
51556;SDS011;38766;53.194;5.532;2023-05-07T02:24:32;25.60;;;17.65;;
51556;SDS011;38766;53.194;5.532;2023-05-07T02:26:57;26.63;;;19.00;;
51556;SDS011;38766;53.194;5.532;2023-05-07T02:29:23;24.70;;;17.67;;
51556;SDS011;38766;53.194;5.532;2023-05-07T02:31:49;25.33;;;19.00;;
51556;SDS011;38766;53.194;5.532;2023-05-07T02:34:17;24.33;;;18.23;;
51556;SDS011;38766;53.194;5.532;2023-05-07T02:36:43;26.85;;;18.08;;
51556;SDS011;38766;53.194;5.532;2023-05-07T02:39:09;25.02;;;18.83;;
51556;SDS011;38766;53.194;5.532;2023-05-07T02:41:35;25.52;;;18.40;;
51556;SDS011;38766;53.194;5.532;2023-05-07T02:44:00;25.00;;;18.95;;
51556;SDS011;38766;53.194;5.532;2023-05-07T02:46:26;27.67;;;19.55;;
51556;SDS011;38766;53.194;5.532;2023-05-07T02:48:51;26.25;;;19.05;;
51556;SDS011;38766;53.194;5.532;2023-05-07T02:51:19;29.30;;;19.83;;
51556;SDS011;38766;53.194;5.532;2023-05-07T02:53:46;28.83;;;20.17;;
51556;SDS011;38766;53.194;5.532;2023-05-07T02:56:12;25.50;;;20.08;;
51556;SDS011;38766;53.194;5.532;2023-05-07T02:58:37;28.35;;;21.55;;
51556;SDS011;38766;53.194;5.532;2023-05-07T03:01:10;26.90;;;20.25;;
51556;SDS011;38766;53.194;5.532;2023-05-07T03:03:36;28.02;;;19.90;;
51556;SDS011;38766;53.194;5.532;2023-05-07T03:06:02;27.42;;;20.58;;
51556;SDS011;38766;53.194;5.532;2023-05-07T03:08:27;29.00;;;20.23;;
51556;SDS011;38766;53.194;5.532;2023-05-07T03:10:54;26.98;;;20.50;;
51556;SDS011;38766;53.194;5.532;2023-05-07T03:13:20;31.20;;;22.27;;
51556;SDS011;38766;53.194;5.532;2023-05-07T03:15:46;28.67;;;22.13;;
51556;SDS011;38766;53.194;5.532;2023-05-07T03:18:11;27.10;;;21.73;;
51556;SDS011;38766;53.194;5.532;2023-05-07T03:20:37;32.85;;;22.38;;
51556;SDS011;38766;53.194;5.532;2023-05-07T03:23:03;33.42;;;22.17;;
51556;SDS011;38766;53.194;5.532;2023-05-07T03:25:28;31.48;;;22.58;;
51556;SDS011;38766;53.194;5.532;2023-05-07T03:27:57;30.08;;;22.05;;
51556;SDS011;38766;53.194;5.532;2023-05-07T03:30:23;32.30;;;23.70;;
51556;SDS011;38766;53.194;5.532;2023-05-07T03:32:48;36.22;;;24.80;;
51556;SDS011;38766;53.194;5.532;2023-05-07T03:35:14;29.60;;;22.42;;
51556;SDS011;38766;53.194;5.532;2023-05-07T03:37:40;40.72;;;24.10;;
51556;SDS011;38766;53.194;5.532;2023-05-07T03:40:06;36.15;;;24.65;;
51556;SDS011;38766;53.194;5.532;2023-05-07T03:42:32;32.85;;;23.27;;
51556;SDS011;38766;53.194;5.532;2023-05-07T03:44:58;32.35;;;24.25;;
51556;SDS011;38766;53.194;5.532;2023-05-07T03:47:24;32.58;;;24.15;;
51556;SDS011;38766;53.194;5.532;2023-05-07T03:49:49;32.42;;;23.67;;
51556;SDS011;38766;53.194;5.532;2023-05-07T03:52:17;32.25;;;23.40;;
51556;SDS011;38766;53.194;5.532;2023-05-07T03:54:48;30.30;;;23.40;;
51556;SDS011;38766;53.194;5.532;2023-05-07T03:57:13;34.63;;;24.10;;
51556;SDS011;38766;53.194;5.532;2023-05-07T03:59:39;37.35;;;24.52;;
51556;SDS011;38766;53.194;5.532;2023-05-07T04:02:04;31.92;;;24.38;;
51556;SDS011;38766;53.194;5.532;2023-05-07T04:04:30;33.70;;;24.48;;
51556;SDS011;38766;53.194;5.532;2023-05-07T04:06:57;36.00;;;25.88;;
51556;SDS011;38766;53.194;5.532;2023-05-07T04:09:24;32.67;;;24.80;;
51556;SDS011;38766;53.194;5.532;2023-05-07T04:11:50;36.25;;;25.45;;
51556;SDS011;38766;53.194;5.532;2023-05-07T04:14:16;32.38;;;24.95;;
51556;SDS011;38766;53.194;5.532;2023-05-07T04:16:41;33.30;;;24.35;;
51556;SDS011;38766;53.194;5.532;2023-05-07T04:19:07;33.83;;;24.60;;
51556;SDS011;38766;53.194;5.532;2023-05-07T04:21:32;32.40;;;24.25;;
51556;SDS011;38766;53.194;5.532;2023-05-07T04:23:58;33.17;;;24.90;;
51556;SDS011;38766;53.194;5.532;2023-05-07T04:26:24;35.30;;;24.30;;
51556;SDS011;38766;53.194;5.532;2023-05-07T04:28:49;32.08;;;24.73;;
51556;SDS011;38766;53.194;5.532;2023-05-07T04:31:15;33.28;;;24.98;;
51556;SDS011;38766;53.194;5.532;2023-05-07T04:33:41;36.58;;;26.10;;
51556;SDS011;38766;53.194;5.532;2023-05-07T04:36:07;37.22;;;26.50;;
51556;SDS011;38766;53.194;5.532;2023-05-07T04:38:32;33.97;;;25.38;;
51556;SDS011;38766;53.194;5.532;2023-05-07T04:41:02;33.33;;;25.38;;
51556;SDS011;38766;53.194;5.532;2023-05-07T04:43:29;35.00;;;25.42;;
51556;SDS011;38766;53.194;5.532;2023-05-07T04:45:54;33.60;;;24.85;;
51556;SDS011;38766;53.194;5.532;2023-05-07T04:48:20;35.65;;;25.55;;
51556;SDS011;38766;53.194;5.532;2023-05-07T04:50:52;34.38;;;25.35;;
51556;SDS011;38766;53.194;5.532;2023-05-07T04:53:18;37.00;;;25.65;;
51556;SDS011;38766;53.194;5.532;2023-05-07T04:55:44;34.40;;;25.20;;
51556;SDS011;38766;53.194;5.532;2023-05-07T04:58:12;35.33;;;25.30;;
51556;SDS011;38766;53.194;5.532;2023-05-07T05:00:39;36.97;;;26.60;;
51556;SDS011;38766;53.194;5.532;2023-05-07T05:03:06;37.05;;;25.58;;
51556;SDS011;38766;53.194;5.532;2023-05-07T05:05:32;33.63;;;25.50;;
51556;SDS011;38766;53.194;5.532;2023-05-07T05:07:57;35.38;;;26.73;;
51556;SDS011;38766;53.194;5.532;2023-05-07T05:10:23;35.08;;;25.55;;
51556;SDS011;38766;53.194;5.532;2023-05-07T05:12:49;38.78;;;27.38;;
51556;SDS011;38766;53.194;5.532;2023-05-07T05:15:15;37.70;;;27.67;;
51556;SDS011;38766;53.194;5.532;2023-05-07T05:17:41;40.42;;;26.92;;
51556;SDS011;38766;53.194;5.532;2023-05-07T05:20:06;36.03;;;25.65;;
51556;SDS011;38766;53.194;5.532;2023-05-07T05:22:32;37.10;;;26.48;;
51556;SDS011;38766;53.194;5.532;2023-05-07T05:24:58;41.28;;;27.55;;
51556;SDS011;38766;53.194;5.532;2023-05-07T05:27:23;41.97;;;28.50;;
51556;SDS011;38766;53.194;5.532;2023-05-07T05:29:49;38.47;;;26.50;;
51556;SDS011;38766;53.194;5.532;2023-05-07T05:32:15;43.70;;;29.42;;
51556;SDS011;38766;53.194;5.532;2023-05-07T05:34:40;43.60;;;29.05;;
51556;SDS011;38766;53.194;5.532;2023-05-07T05:37:06;39.47;;;29.13;;
51556;SDS011;38766;53.194;5.532;2023-05-07T05:39:31;40.40;;;28.40;;
51556;SDS011;38766;53.194;5.532;2023-05-07T05:41:57;41.65;;;29.38;;
51556;SDS011;38766;53.194;5.532;2023-05-07T05:44:22;42.70;;;28.10;;
51556;SDS011;38766;53.194;5.532;2023-05-07T05:46:48;43.03;;;28.13;;
51556;SDS011;38766;53.194;5.532;2023-05-07T05:49:19;43.65;;;28.67;;
51556;SDS011;38766;53.194;5.532;2023-05-07T05:51:45;43.58;;;29.33;;
51556;SDS011;38766;53.194;5.532;2023-05-07T05:54:13;41.40;;;29.85;;
51556;SDS011;38766;53.194;5.532;2023-05-07T05:56:40;42.15;;;28.63;;
51556;SDS011;38766;53.194;5.532;2023-05-07T05:59:06;42.95;;;29.65;;
51556;SDS011;38766;53.194;5.532;2023-05-07T06:01:32;44.63;;;30.02;;
51556;SDS011;38766;53.194;5.532;2023-05-07T06:03:58;45.15;;;30.98;;
51556;SDS011;38766;53.194;5.532;2023-05-07T06:06:23;46.95;;;30.20;;
51556;SDS011;38766;53.194;5.532;2023-05-07T06:08:49;45.78;;;30.65;;
51556;SDS011;38766;53.194;5.532;2023-05-07T06:11:14;44.80;;;30.33;;
51556;SDS011;38766;53.194;5.532;2023-05-07T06:13:40;51.25;;;30.88;;
51556;SDS011;38766;53.194;5.532;2023-05-07T06:16:06;43.47;;;29.98;;
51556;SDS011;38766;53.194;5.532;2023-05-07T06:18:31;47.33;;;31.13;;
51556;SDS011;38766;53.194;5.532;2023-05-07T06:20:57;44.95;;;32.25;;
51556;SDS011;38766;53.194;5.532;2023-05-07T06:23:23;42.75;;;31.13;;
51556;SDS011;38766;53.194;5.532;2023-05-07T06:25:48;45.10;;;30.63;;
51556;SDS011;38766;53.194;5.532;2023-05-07T06:28:17;48.03;;;31.02;;
51556;SDS011;38766;53.194;5.532;2023-05-07T06:30:43;46.90;;;30.55;;
51556;SDS011;38766;53.194;5.532;2023-05-07T06:33:09;42.72;;;29.90;;
51556;SDS011;38766;53.194;5.532;2023-05-07T06:35:34;46.58;;;31.90;;
51556;SDS011;38766;53.194;5.532;2023-05-07T06:38:00;47.03;;;31.88;;
51556;SDS011;38766;53.194;5.532;2023-05-07T06:40:26;44.45;;;30.95;;
51556;SDS011;38766;53.194;5.532;2023-05-07T06:42:51;44.17;;;31.58;;
51556;SDS011;38766;53.194;5.532;2023-05-07T06:45:17;46.28;;;29.77;;
51556;SDS011;38766;53.194;5.532;2023-05-07T06:47:44;48.08;;;30.75;;
51556;SDS011;38766;53.194;5.532;2023-05-07T06:50:09;44.58;;;29.80;;
51556;SDS011;38766;53.194;5.532;2023-05-07T06:52:35;45.25;;;31.80;;
51556;SDS011;38766;53.194;5.532;2023-05-07T06:55:01;45.22;;;30.63;;
51556;SDS011;38766;53.194;5.532;2023-05-07T06:57:26;42.33;;;30.55;;
51556;SDS011;38766;53.194;5.532;2023-05-07T06:59:52;44.70;;;29.92;;
51556;SDS011;38766;53.194;5.532;2023-05-07T07:02:19;47.00;;;31.00;;
51556;SDS011;38766;53.194;5.532;2023-05-07T07:04:44;43.22;;;29.45;;
51556;SDS011;38766;53.194;5.532;2023-05-07T07:07:10;45.80;;;30.27;;
51556;SDS011;38766;53.194;5.532;2023-05-07T07:09:36;42.92;;;29.58;;
51556;SDS011;38766;53.194;5.532;2023-05-07T07:12:01;43.25;;;29.58;;
51556;SDS011;38766;53.194;5.532;2023-05-07T07:14:33;39.10;;;29.27;;
51556;SDS011;38766;53.194;5.532;2023-05-07T07:16:59;39.20;;;29.30;;
51556;SDS011;38766;53.194;5.532;2023-05-07T07:19:25;41.45;;;29.05;;
51556;SDS011;38766;53.194;5.532;2023-05-07T07:21:51;38.65;;;27.90;;
51556;SDS011;38766;53.194;5.532;2023-05-07T07:24:17;41.10;;;28.00;;
51556;SDS011;38766;53.194;5.532;2023-05-07T07:26:46;37.63;;;28.98;;
51556;SDS011;38766;53.194;5.532;2023-05-07T07:29:11;34.85;;;27.77;;
51556;SDS011;38766;53.194;5.532;2023-05-07T07:31:37;39.22;;;26.67;;
51556;SDS011;38766;53.194;5.532;2023-05-07T07:34:03;35.78;;;27.58;;
51556;SDS011;38766;53.194;5.532;2023-05-07T07:36:28;37.22;;;26.77;;
51556;SDS011;38766;53.194;5.532;2023-05-07T07:38:55;34.33;;;26.67;;
51556;SDS011;38766;53.194;5.532;2023-05-07T07:41:20;38.35;;;27.42;;
51556;SDS011;38766;53.194;5.532;2023-05-07T07:43:46;37.45;;;27.02;;
51556;SDS011;38766;53.194;5.532;2023-05-07T07:46:12;33.65;;;25.27;;
51556;SDS011;38766;53.194;5.532;2023-05-07T07:48:38;37.25;;;26.77;;
51556;SDS011;38766;53.194;5.532;2023-05-07T07:51:03;34.80;;;25.02;;
51556;SDS011;38766;53.194;5.532;2023-05-07T07:53:29;34.28;;;25.30;;
51556;SDS011;38766;53.194;5.532;2023-05-07T07:55:55;34.08;;;26.55;;
51556;SDS011;38766;53.194;5.532;2023-05-07T07:58:21;33.75;;;25.08;;
51556;SDS011;38766;53.194;5.532;2023-05-07T08:00:47;33.20;;;25.48;;
51556;SDS011;38766;53.194;5.532;2023-05-07T08:03:13;31.88;;;25.48;;
51556;SDS011;38766;53.194;5.532;2023-05-07T08:05:41;34.70;;;25.38;;
51556;SDS011;38766;53.194;5.532;2023-05-07T08:08:09;29.42;;;23.40;;
51556;SDS011;38766;53.194;5.532;2023-05-07T08:10:35;32.00;;;24.75;;
51556;SDS011;38766;53.194;5.532;2023-05-07T08:13:03;33.10;;;24.83;;
51556;SDS011;38766;53.194;5.532;2023-05-07T08:15:29;30.80;;;24.17;;
51556;SDS011;38766;53.194;5.532;2023-05-07T08:17:55;33.05;;;25.25;;
51556;SDS011;38766;53.194;5.532;2023-05-07T08:20:22;34.15;;;25.50;;
51556;SDS011;38766;53.194;5.532;2023-05-07T08:22:48;32.20;;;24.88;;
51556;SDS011;38766;53.194;5.532;2023-05-07T08:25:14;32.70;;;24.00;;
51556;SDS011;38766;53.194;5.532;2023-05-07T08:27:39;28.77;;;23.60;;
51556;SDS011;38766;53.194;5.532;2023-05-07T08:30:05;28.15;;;23.30;;
51556;SDS011;38766;53.194;5.532;2023-05-07T08:32:31;30.90;;;22.63;;
51556;SDS011;38766;53.194;5.532;2023-05-07T08:34:57;29.25;;;22.77;;
51556;SDS011;38766;53.194;5.532;2023-05-07T08:37:23;26.90;;;22.27;;
51556;SDS011;38766;53.194;5.532;2023-05-07T08:39:48;28.77;;;23.00;;
51556;SDS011;38766;53.194;5.532;2023-05-07T08:42:14;29.35;;;21.70;;
51556;SDS011;38766;53.194;5.532;2023-05-07T08:44:45;29.90;;;22.00;;
51556;SDS011;38766;53.194;5.532;2023-05-07T08:47:14;27.50;;;21.35;;
51556;SDS011;38766;53.194;5.532;2023-05-07T08:49:40;28.17;;;22.17;;
51556;SDS011;38766;53.194;5.532;2023-05-07T08:52:06;26.00;;;19.55;;
51556;SDS011;38766;53.194;5.532;2023-05-07T08:54:32;26.40;;;21.13;;
51556;SDS011;38766;53.194;5.532;2023-05-07T08:56:58;26.55;;;20.70;;
51556;SDS011;38766;53.194;5.532;2023-05-07T08:59:24;24.30;;;20.63;;
51556;SDS011;38766;53.194;5.532;2023-05-07T09:01:50;24.50;;;20.48;;
51556;SDS011;38766;53.194;5.532;2023-05-07T09:04:19;23.17;;;19.10;;
51556;SDS011;38766;53.194;5.532;2023-05-07T09:06:44;25.13;;;20.52;;
51556;SDS011;38766;53.194;5.532;2023-05-07T09:09:10;23.85;;;20.25;;
51556;SDS011;38766;53.194;5.532;2023-05-07T09:11:42;22.65;;;18.88;;
51556;SDS011;38766;53.194;5.532;2023-05-07T09:14:08;22.10;;;18.45;;
51556;SDS011;38766;53.194;5.532;2023-05-07T09:16:33;21.20;;;18.67;;
51556;SDS011;38766;53.194;5.532;2023-05-07T09:18:59;24.80;;;20.05;;
51556;SDS011;38766;53.194;5.532;2023-05-07T09:21:26;22.80;;;18.73;;
51556;SDS011;38766;53.194;5.532;2023-05-07T09:23:52;24.45;;;20.15;;
51556;SDS011;38766;53.194;5.532;2023-05-07T09:26:22;25.38;;;19.80;;
51556;SDS011;38766;53.194;5.532;2023-05-07T09:28:49;24.73;;;20.20;;
51556;SDS011;38766;53.194;5.532;2023-05-07T09:31:15;23.50;;;19.30;;
51556;SDS011;38766;53.194;5.532;2023-05-07T09:33:41;23.45;;;20.38;;
51556;SDS011;38766;53.194;5.532;2023-05-07T09:36:07;22.58;;;19.30;;
51556;SDS011;38766;53.194;5.532;2023-05-07T09:38:34;27.05;;;20.73;;
51556;SDS011;38766;53.194;5.532;2023-05-07T09:41:02;24.00;;;19.73;;
51556;SDS011;38766;53.194;5.532;2023-05-07T09:43:33;26.35;;;21.17;;
51556;SDS011;38766;53.194;5.532;2023-05-07T09:46:04;25.15;;;20.45;;
51556;SDS011;38766;53.194;5.532;2023-05-07T09:48:34;24.08;;;19.90;;
51556;SDS011;38766;53.194;5.532;2023-05-07T09:51:02;22.73;;;19.45;;
51556;SDS011;38766;53.194;5.532;2023-05-07T09:53:31;23.80;;;19.40;;
51556;SDS011;38766;53.194;5.532;2023-05-07T09:55:58;23.33;;;19.85;;
51556;SDS011;38766;53.194;5.532;2023-05-07T09:58:25;26.05;;;19.75;;
51556;SDS011;38766;53.194;5.532;2023-05-07T10:00:51;21.77;;;18.67;;
51556;SDS011;38766;53.194;5.532;2023-05-07T10:03:17;23.10;;;19.67;;
51556;SDS011;38766;53.194;5.532;2023-05-07T10:05:45;29.65;;;20.88;;
51556;SDS011;38766;53.194;5.532;2023-05-07T10:08:12;26.52;;;21.15;;
51556;SDS011;38766;53.194;5.532;2023-05-07T10:10:39;27.85;;;21.10;;
51556;SDS011;38766;53.194;5.532;2023-05-07T10:13:06;23.88;;;18.98;;
51556;SDS011;38766;53.194;5.532;2023-05-07T10:15:35;25.35;;;19.88;;
51556;SDS011;38766;53.194;5.532;2023-05-07T10:18:04;23.67;;;20.35;;
51556;SDS011;38766;53.194;5.532;2023-05-07T10:20:33;23.88;;;18.83;;
51556;SDS011;38766;53.194;5.532;2023-05-07T10:22:59;22.52;;;18.75;;
51556;SDS011;38766;53.194;5.532;2023-05-07T10:25:31;23.55;;;19.10;;
51556;SDS011;38766;53.194;5.532;2023-05-07T10:27:59;24.20;;;19.50;;
51556;SDS011;38766;53.194;5.532;2023-05-07T10:33:02;24.13;;;20.33;;
51556;SDS011;38766;53.194;5.532;2023-05-07T10:35:32;24.08;;;18.73;;
51556;SDS011;38766;53.194;5.532;2023-05-07T10:38:04;23.45;;;19.55;;
51556;SDS011;38766;53.194;5.532;2023-05-07T10:40:30;22.23;;;19.20;;
51556;SDS011;38766;53.194;5.532;2023-05-07T10:42:57;23.98;;;19.13;;
51556;SDS011;38766;53.194;5.532;2023-05-07T10:45:27;25.77;;;20.10;;
51556;SDS011;38766;53.194;5.532;2023-05-07T10:48:06;21.33;;;18.73;;
51556;SDS011;38766;53.194;5.532;2023-05-07T10:50:32;21.27;;;18.90;;
51556;SDS011;38766;53.194;5.532;2023-05-07T10:55:42;23.00;;;18.97;;
51556;SDS011;38766;53.194;5.532;2023-05-07T11:00:46;22.65;;;19.90;;
51556;SDS011;38766;53.194;5.532;2023-05-07T11:03:12;21.30;;;19.00;;
51556;SDS011;38766;53.194;5.532;2023-05-07T11:05:40;22.83;;;18.77;;
51556;SDS011;38766;53.194;5.532;2023-05-07T11:08:06;24.95;;;19.05;;
51556;SDS011;38766;53.194;5.532;2023-05-07T11:13:40;20.73;;;18.15;;
51556;SDS011;38766;53.194;5.532;2023-05-07T11:16:21;25.20;;;20.23;;
51556;SDS011;38766;53.194;5.532;2023-05-07T11:18:53;24.05;;;19.73;;
51556;SDS011;38766;53.194;5.532;2023-05-07T11:24:01;24.92;;;18.48;;
51556;SDS011;38766;53.194;5.532;2023-05-07T11:26:29;25.35;;;20.65;;
51556;SDS011;38766;53.194;5.532;2023-05-07T11:28:56;20.67;;;18.00;;
51556;SDS011;38766;53.194;5.532;2023-05-07T11:31:24;22.88;;;18.50;;
51556;SDS011;38766;53.194;5.532;2023-05-07T11:33:52;23.45;;;18.50;;
51556;SDS011;38766;53.194;5.532;2023-05-07T11:36:19;22.25;;;19.33;;
51556;SDS011;38766;53.194;5.532;2023-05-07T11:38:46;21.48;;;17.20;;
51556;SDS011;38766;53.194;5.532;2023-05-07T11:41:12;21.15;;;18.40;;
51556;SDS011;38766;53.194;5.532;2023-05-07T11:43:37;23.75;;;20.35;;
51556;SDS011;38766;53.194;5.532;2023-05-07T11:46:18;19.83;;;17.73;;
51556;SDS011;38766;53.194;5.532;2023-05-07T11:48:45;24.17;;;18.85;;
51556;SDS011;38766;53.194;5.532;2023-05-07T11:51:11;24.05;;;18.88;;
51556;SDS011;38766;53.194;5.532;2023-05-07T11:53:40;23.77;;;19.13;;
51556;SDS011;38766;53.194;5.532;2023-05-07T11:56:08;22.77;;;18.48;;
51556;SDS011;38766;53.194;5.532;2023-05-07T11:58:35;23.40;;;18.30;;
51556;SDS011;38766;53.194;5.532;2023-05-07T12:01:01;19.33;;;16.88;;
51556;SDS011;38766;53.194;5.532;2023-05-07T12:03:27;20.35;;;17.70;;
51556;SDS011;38766;53.194;5.532;2023-05-07T12:05:53;24.63;;;18.98;;
51556;SDS011;38766;53.194;5.532;2023-05-07T12:08:19;23.55;;;19.08;;
51556;SDS011;38766;53.194;5.532;2023-05-07T12:10:46;23.17;;;18.35;;
51556;SDS011;38766;53.194;5.532;2023-05-07T12:13:14;24.35;;;18.95;;
51556;SDS011;38766;53.194;5.532;2023-05-07T12:15:40;20.85;;;18.35;;
51556;SDS011;38766;53.194;5.532;2023-05-07T12:18:05;21.95;;;17.27;;
51556;SDS011;38766;53.194;5.532;2023-05-07T12:20:32;22.08;;;17.70;;
51556;SDS011;38766;53.194;5.532;2023-05-07T12:22:59;21.55;;;17.40;;
51556;SDS011;38766;53.194;5.532;2023-05-07T12:25:26;20.38;;;17.73;;
51556;SDS011;38766;53.194;5.532;2023-05-07T12:27:54;20.55;;;17.35;;
51556;SDS011;38766;53.194;5.532;2023-05-07T12:30:22;20.48;;;16.67;;
51556;SDS011;38766;53.194;5.532;2023-05-07T12:32:51;21.75;;;17.92;;
51556;SDS011;38766;53.194;5.532;2023-05-07T12:38:13;18.67;;;15.68;;
51556;SDS011;38766;53.194;5.532;2023-05-07T12:40:51;20.38;;;16.55;;
51556;SDS011;38766;53.194;5.532;2023-05-07T12:43:20;19.35;;;17.25;;
51556;SDS011;38766;53.194;5.532;2023-05-07T12:45:49;21.05;;;16.73;;
51556;SDS011;38766;53.194;5.532;2023-05-07T12:48:16;19.30;;;16.80;;
51556;SDS011;38766;53.194;5.532;2023-05-07T12:50:43;21.48;;;16.15;;
51556;SDS011;38766;53.194;5.532;2023-05-07T12:53:10;18.55;;;15.93;;
51556;SDS011;38766;53.194;5.532;2023-05-07T12:55:43;18.13;;;15.95;;
51556;SDS011;38766;53.194;5.532;2023-05-07T13:00:43;19.92;;;16.15;;
51556;SDS011;38766;53.194;5.532;2023-05-07T13:03:10;18.88;;;16.75;;
51556;SDS011;38766;53.194;5.532;2023-05-07T13:05:36;18.35;;;15.75;;
51556;SDS011;38766;53.194;5.532;2023-05-07T13:08:02;18.83;;;16.17;;
51556;SDS011;38766;53.194;5.532;2023-05-07T13:10:29;17.20;;;14.57;;
51556;SDS011;38766;53.194;5.532;2023-05-07T13:12:54;18.88;;;16.58;;
51556;SDS011;38766;53.194;5.532;2023-05-07T13:15:20;19.55;;;16.20;;
51556;SDS011;38766;53.194;5.532;2023-05-07T13:17:46;17.05;;;15.13;;
51556;SDS011;38766;53.194;5.532;2023-05-07T13:20:12;17.73;;;14.30;;
51556;SDS011;38766;53.194;5.532;2023-05-07T13:22:38;16.95;;;14.40;;
51556;SDS011;38766;53.194;5.532;2023-05-07T13:25:04;19.25;;;17.15;;
51556;SDS011;38766;53.194;5.532;2023-05-07T13:27:30;19.63;;;15.68;;
51556;SDS011;38766;53.194;5.532;2023-05-07T13:29:56;18.30;;;15.15;;
51556;SDS011;38766;53.194;5.532;2023-05-07T13:32:22;18.05;;;14.88;;
51556;SDS011;38766;53.194;5.532;2023-05-07T13:34:47;16.65;;;14.75;;
51556;SDS011;38766;53.194;5.532;2023-05-07T13:37:13;16.27;;;13.18;;
51556;SDS011;38766;53.194;5.532;2023-05-07T13:39:39;15.95;;;13.48;;
51556;SDS011;38766;53.194;5.532;2023-05-07T13:42:05;17.45;;;14.18;;
51556;SDS011;38766;53.194;5.532;2023-05-07T13:44:32;14.25;;;11.85;;
51556;SDS011;38766;53.194;5.532;2023-05-07T13:46:58;14.23;;;12.60;;
51556;SDS011;38766;53.194;5.532;2023-05-07T13:49:23;16.17;;;13.38;;
51556;SDS011;38766;53.194;5.532;2023-05-07T13:51:49;18.98;;;15.63;;
51556;SDS011;38766;53.194;5.532;2023-05-07T13:54:15;17.30;;;14.18;;
51556;SDS011;38766;53.194;5.532;2023-05-07T13:56:41;14.35;;;12.15;;
51556;SDS011;38766;53.194;5.532;2023-05-07T13:59:06;15.02;;;13.10;;
51556;SDS011;38766;53.194;5.532;2023-05-07T14:01:32;15.95;;;12.95;;
51556;SDS011;38766;53.194;5.532;2023-05-07T14:03:58;18.65;;;16.42;;
51556;SDS011;38766;53.194;5.532;2023-05-07T14:06:24;18.45;;;14.05;;
51556;SDS011;38766;53.194;5.532;2023-05-07T14:08:50;15.45;;;13.20;;
51556;SDS011;38766;53.194;5.532;2023-05-07T14:11:15;16.92;;;14.77;;
51556;SDS011;38766;53.194;5.532;2023-05-07T14:13:41;17.05;;;13.77;;
51556;SDS011;38766;53.194;5.532;2023-05-07T14:16:07;16.83;;;14.38;;
51556;SDS011;38766;53.194;5.532;2023-05-07T14:18:33;16.70;;;13.18;;
51556;SDS011;38766;53.194;5.532;2023-05-07T14:20:59;16.30;;;13.35;;
51556;SDS011;38766;53.194;5.532;2023-05-07T14:23:25;17.52;;;14.95;;
51556;SDS011;38766;53.194;5.532;2023-05-07T14:25:52;15.38;;;13.00;;
51556;SDS011;38766;53.194;5.532;2023-05-07T14:28:18;16.25;;;14.55;;
51556;SDS011;38766;53.194;5.532;2023-05-07T14:30:44;17.10;;;14.95;;
51556;SDS011;38766;53.194;5.532;2023-05-07T14:33:09;17.05;;;14.50;;
51556;SDS011;38766;53.194;5.532;2023-05-07T14:35:35;19.35;;;14.70;;